EW3293 Weather Reports


Display with metric or nautical units.
time (UTC)temp
F
wind
direction
speed
MPH
gust
MPH
rain 1hr
in
rain 24hr
in
rain mn
in
humidity
%
barometer
mb
20200713014803 70 319 2.0 7.0 0.00 0.00 0.00 58 1014.0
20200713014304 70 350 2.0 3.0 0.00 0.00 0.00 57 1013.9
20200713013803 71 350 3.0 5.0 0.00 0.00 0.00 57 1013.9
20200713013303 71 355 3.0 3.0 0.00 0.00 0.00 57 1013.8
20200713012803 71 355 3.0 5.0 0.00 0.00 0.00 57 1013.8
20200713012304 72 351 3.0 6.0 0.00 0.00 0.00 56 1013.8
20200713011804 72 355 3.0 7.0 0.00 0.00 0.00 55 1013.7
20200713011304 72 355 4.0 6.0 0.00 0.00 0.00 54 1013.7
20200713010804 72 355 5.0 6.0 0.00 0.00 0.00 54 1013.7
20200713010303 72 355 5.0 6.0 0.00 0.00 0.00 53 1013.7
20200713005803 73 0 4.0 7.0 0.00 0.00 0.00 53 1013.7
20200713005303 73 11 6.0 9.0 0.00 0.00 0.00 52 1013.7
20200713004803 73 8 6.0 8.0 0.00 0.00 0.00 51 1013.6
20200713004304 74 10 4.0 8.0 0.00 0.00 0.00 51 1013.7
20200713003804 74 2 3.0 7.0 0.00 0.00 0.00 51 1013.7
20200713003304 74 3 6.0 9.0 0.00 0.00 0.00 50 1013.6
20200713002804 74 0 7.0 9.0 0.00 0.00 0.00 50 1013.6
20200713002304 74 358 6.0 10.0 0.00 0.00 0.00 50 1013.6
20200713001805 74 12 6.0 10.0 0.00 0.00 0.00 49 1013.6
20200713001303 75 4 6.0 10.0 0.00 0.00 0.00 49 1013.6
20200713000803 75 345 5.0 10.0 0.00 0.00 0.00 49 1013.6
20200713000304 75 356 7.0 12.0 0.00 0.00 0.00 48 1013.6
20200712235804 75 5 5.0 10.0 0.00 0.00 0.00 49 1013.5
20200712235303 75 356 7.0 12.0 0.00 0.00 0.00 48 1013.5
20200712234804 75 344 7.0 12.0 0.00 0.00 0.00 48 1013.5
20200712234304 75 350 6.0 10.0 0.00 0.00 0.00 50 1013.4
20200712233804 75 17 6.0 12.0 0.00 0.00 0.00 49 1013.5
20200712233303 76 1 8.0 12.0 0.00 0.00 0.00 48 1013.4
20200712232803 76 2 5.0 10.0 0.00 0.00 0.00 49 1013.5
20200712232303 76 351 6.0 12.0 0.00 0.00 0.00 50 1013.5
20200712231803 76 27 9.0 13.0 0.00 0.00 0.00 48 1013.4
20200712231304 76 1 8.0 12.0 0.00 0.00 0.00 47 1013.4
20200712230804 76 351 5.0 9.0 0.00 0.00 0.00 50 1013.3
20200712230306 76 5 7.0 12.0 0.00 0.00 0.00 49 1013.2
20200712225803 76 322 7.0 12.0 0.00 0.00 0.00 50 1013.3
20200712225305 76 9 12.0 18.0 0.00 0.00 0.00 49 1013.3
20200712224803 76 11 7.0 14.0 0.00 0.00 0.00 48 1013.3
20200712224303 76 8 10.0 15.0 0.00 0.00 0.00 47 1013.3
20200712223803 76 13 6.0 10.0 0.00 0.00 0.00 50 1013.2
20200712223303 76 7 9.0 13.0 0.00 0.00 0.00 50 1013.2
20200712222812 76 14 7.0 12.0 0.00 0.00 0.00 50 1013.2
20200712222303 76 7 9.0 13.0 0.00 0.00 0.00 49 1013.1
20200712221804 77 8 9.0 14.0 0.00 0.00 0.00 48 1013.1
20200712221304 77 23 7.0 13.0 0.00 0.00 0.00 48 1013.1
20200712220803 77 351 4.0 13.0 0.00 0.00 0.00 49 1013.1
20200712220303 77 1 5.0 10.0 0.00 0.00 0.00 51 1013.2
20200712215803 76 330 4.0 10.0 0.00 0.00 0.00 52 1013.2
20200712215303 75 339 6.0 9.0 0.00 0.00 0.00 52 1013.1
20200712214803 75 6 7.0 9.0 0.00 0.00 0.00 52 1013.1
20200712214304 75 350 7.0 14.0 0.00 0.00 0.00 51 1013.2
20200712213803 76 0 8.0 14.0 0.00 0.00 0.00 50 1013.2
20200712213305 76 330 7.0 12.0 0.00 0.00 0.00 50 1013.1
20200712212803 76 0 7.0 12.0 0.00 0.00 0.00 49 1013.1
20200712212303 76 358 9.0 14.0 0.00 0.00 0.00 50 1013.1
20200712211803 76 346 6.0 9.0 0.00 0.00 0.00 50 1013.1
20200712211304 75 350 2.0 7.0 0.00 0.00 0.00 52 1013.1
20200712210805 75 334 6.0 12.0 0.00 0.00 0.00 53 1013.1
20200712210309 75 2 9.0 15.0 0.00 0.00 0.00 52 1013.1
20200712205803 76 350 11.0 15.0 0.00 0.00 0.00 50 1013.1
20200712205303 76 344 7.0 13.0 0.00 0.00 0.00 49 1013.0
20200712204803 76 348 7.0 16.0 0.00 0.00 0.00 48 1013.0
20200712204304 76 353 10.0 20.0 0.00 0.00 0.00 50 1012.9
20200712203804 76 321 5.0 10.0 0.00 0.00 0.00 51 1012.8
20200712203304 76 354 7.0 13.0 0.00 0.00 0.00 51 1012.7
20200712202804 76 340 10.0 18.0 0.00 0.00 0.00 50 1012.7
20200712202303 77 350 8.0 13.0 0.00 0.00 0.00 50 1012.6
20200712201803 76 4 7.0 12.0 0.00 0.00 0.00 51 1012.6
20200712201303 76 322 3.0 7.0 0.00 0.00 0.00 52 1012.6
20200712200804 75 331 3.0 8.0 0.00 0.00 0.00 53 1012.6
20200712200304 75 330 7.0 12.0 0.00 0.00 0.00 53 1012.6
20200712195803 75 342 7.0 15.0 0.00 0.00 0.00 53 1012.7
20200712195304 76 5 5.0 13.0 0.00 0.00 0.00 53 1012.7
20200712194803 75 358 10.0 17.0 0.00 0.00 0.00 52 1012.8
20200712194303 76 324 6.0 12.0 0.00 0.00 0.00 54 1012.7
20200712193804 75 330 6.0 15.0 0.00 0.00 0.00 55 1012.8
20200712193304 76 334 9.0 14.0 0.00 0.00 0.00 53 1012.9
20200712192804 75 333 6.0 12.0 0.00 0.00 0.00 52 1012.8
20200712192304 75 13 8.0 16.0 0.00 0.00 0.00 52 1012.9
20200712191805 75 7 8.0 12.0 0.00 0.00 0.00 53 1013.0
20200712191304 75 350 11.0 15.0 0.00 0.00 0.00 53 1013.0
20200712190804 75 355 6.0 13.0 0.00 0.00 0.00 53 1013.0
20200712190305 75 14 6.0 15.0 0.00 0.00 0.00 55 1012.9
20200712185803 75 350 8.0 13.0 0.00 0.00 0.00 53 1013.0
20200712185307 75 9 7.0 12.0 0.00 0.00 0.00 53 1012.9
20200712184804 75 350 5.0 13.0 0.00 0.00 0.00 52 1012.9
20200712184304 75 333 6.0 16.0 0.00 0.00 0.00 54 1012.9
20200712183804 74 341 7.0 13.0 0.00 0.00 0.00 54 1012.9
20200712183303 74 341 6.0 15.0 0.00 0.00 0.00 55 1012.9
20200712182804 74 327 7.0 16.0 0.00 0.00 0.00 55 1012.9
20200712182304 74 309 6.0 12.0 0.00 0.00 0.00 56 1013.0
20200712181804 73 322 8.0 12.0 0.00 0.00 0.00 57 1013.1
20200712181304 73 355 8.0 12.0 0.00 0.00 0.00 56 1013.0
20200712180804 73 337 8.0 13.0 0.00 0.00 0.00 55 1013.1
20200712180303 73 328 6.0 14.0 0.00 0.00 0.00 56 1013.1
20200712175807 73 323 7.0 12.0 0.00 0.00 0.00 55 1013.1
20200712175305 73 351 9.0 13.0 0.00 0.00 0.00 55 1013.1
20200712174804 72 355 6.0 10.0 0.00 0.00 0.00 56 1013.1
20200712174303 72 13 11.0 17.0 0.00 0.00 0.00 56 1013.1
20200712173804 72 353 7.0 12.0 0.00 0.00 0.00 56 1013.2
20200712173303 72 356 10.0 15.0 0.00 0.00 0.00 56 1013.2
20200712172803 73 353 7.0 14.0 0.00 0.00 0.00 57 1013.2
20200712172304 73 342 7.0 17.0 0.00 0.00 0.00 56 1013.3
20200712171804 72 17 9.0 13.0 0.00 0.00 0.00 57 1013.2
20200712171303 72 2 8.0 15.0 0.00 0.00 0.00 57 1013.3
20200712170804 72 12 9.0 15.0 0.00 0.00 0.00 58 1013.3
20200712170305 72 329 7.0 15.0 0.00 0.00 0.00 59 1013.4
20200712165804 72 336 5.0 12.0 0.00 0.00 0.00 61 1013.5
20200712165307 71 323 9.0 18.0 0.00 0.00 0.00 60 1013.6
20200712164804 71 354 10.0 14.0 0.00 0.00 0.00 60 1013.7
20200712164303 71 317 9.0 22.0 0.00 0.00 0.00 61 1013.7
20200712163804 71 341 7.0 17.0 0.00 0.00 0.00 61 1013.8
20200712163304 71 336 7.0 12.0 0.00 0.00 0.00 63 1013.7
20200712162803 70 12 10.0 16.0 0.00 0.00 0.00 63 1013.7
20200712162303 70 346 7.0 17.0 0.00 0.00 0.00 65 1013.7
20200712161805 69 312 7.0 17.0 0.00 0.00 0.00 66 1013.8
20200712161303 69 336 10.0 20.0 0.00 0.00 0.00 66 1013.8
20200712160804 70 331 7.0 15.0 0.00 0.00 0.00 66 1014.0
20200712160304 70 329 6.0 14.0 0.00 0.00 0.00 66 1013.8
20200712155804 69 336 5.0 17.0 0.00 0.00 0.00 68 1014.2
20200712155308 68 315 9.0 15.0 0.00 0.00 0.00 67 1014.2
20200712154804 68 336 6.0 15.0 0.00 0.00 0.00 67 1014.2
20200712154306 68 346 7.0 12.0 0.00 0.00 0.00 68 1014.1
20200712153804 68 331 10.0 16.0 0.00 0.00 0.00 68 1014.2
20200712153305 68 349 7.0 14.0 0.00 0.00 0.00 69 1014.0
20200712152805 68 320 4.0 12.0 0.00 0.00 0.00 69 1014.0
20200712152305 68 358 9.0 15.0 0.00 0.00 0.00 69 1014.0
20200712151804 68 337 9.0 15.0 0.00 0.00 0.00 69 1014.0
20200712151303 67 310 7.0 12.0 0.00 0.00 0.00 71 1013.9
20200712150803 67 334 9.0 14.0 0.00 0.00 0.00 70 1013.8
20200712150304 67 339 8.0 14.0 0.00 0.00 0.00 70 1013.8
20200712145805 67 334 10.0 20.0 0.00 0.00 0.00 70 1013.8
20200712145303 68 337 7.0 14.0 0.00 0.00 0.00 69 1013.7
20200712144803 68 358 7.0 12.0 0.00 0.00 0.00 71 1013.7
20200712144304 67 358 9.0 12.0 0.00 0.00 0.00 70 1013.7
20200712143804 67 1 6.0 9.0 0.00 0.00 0.00 70 1013.8
20200712143303 67 355 8.0 12.0 0.00 0.00 0.00 70 1013.8
20200712142804 67 7 8.0 13.0 0.00 0.00 0.00 70 1013.9
20200712142305 67 8 7.0 12.0 0.00 0.00 0.00 70 1013.9
20200712141804 67 324 5.0 9.0 0.00 0.00 0.00 71 1013.9
20200712141304 66 324 7.0 13.0 0.00 0.00 0.00 70 1013.8
20200712140804 66 344 9.0 13.0 0.00 0.00 0.00 71 1013.9
20200712140307 66 341 6.0 12.0 0.00 0.00 0.00 71 1013.8
20200712135805 66 331 8.0 12.0 0.00 0.00 0.00 71 1013.8
20200712135303 66 329 3.0 8.0 0.00 0.00 0.00 74 1013.8
20200712134804 65 344 6.0 10.0 0.00 0.00 0.00 74 1013.9
20200712134303 65 317 6.0 12.0 0.00 0.00 0.00 74 1013.9
20200712133803 65 2 8.0 15.0 0.00 0.00 0.00 75 1013.9
20200712133306 65 334 7.0 15.0 0.00 0.00 0.00 75 1013.7
20200712132803 65 353 6.0 12.0 0.00 0.00 0.00 76 1013.7
20200712132303 65 6 7.0 14.0 0.00 0.00 0.00 78 1013.7
20200712131803 64 345 3.0 6.0 0.00 0.00 0.00 79 1013.7
20200712131303 64 342 5.0 9.0 0.00 0.00 0.00 79 1013.7
20200712130803 64 330 5.0 12.0 0.00 0.00 0.00 80 1013.7
20200712130304 64 350 6.0 13.0 0.00 0.00 0.00 80 1013.7
20200712125805 64 333 4.0 9.0 0.00 0.00 0.00 80 1013.7
20200712125304 64 318 6.0 10.0 0.00 0.00 0.00 80 1013.7
20200712124804 64 314 3.0 8.0 0.00 0.00 0.00 81 1013.6
20200712124304 64 332 4.0 10.0 0.00 0.00 0.00 81 1013.6
20200712123804 64 320 4.0 9.0 0.00 0.00 0.00 80 1013.7
20200712123304 64 4 5.0 7.0 0.00 0.00 0.00 81 1013.6
20200712122804 63 343 5.0 12.0 0.00 0.00 0.00 81 1013.6
20200712122304 63 320 5.0 9.0 0.00 0.00 0.00 82 1013.5
20200712121805 63 340 5.0 12.0 0.00 0.00 0.00 82 1013.5
20200712121304 63 353 7.0 13.0 0.00 0.00 0.00 82 1013.5
20200712120804 63 352 7.0 12.0 0.00 0.00 0.00 82 1013.5
20200712120304 63 340 5.0 9.0 0.00 0.00 0.00 82 1013.4
20200712115804 63 336 7.0 10.0 0.00 0.00 0.00 82 1013.5
20200712115304 62 340 5.0 10.0 0.00 0.00 0.00 82 1013.4
20200712114803 62 308 6.0 12.0 0.00 0.00 0.00 82 1013.4
20200712114304 62 346 8.0 12.0 0.00 0.00 0.00 83 1013.4
20200712113803 62 341 6.0 10.0 0.00 0.00 0.00 83 1013.4
20200712113304 61 324 6.0 9.0 0.00 0.00 0.00 84 1013.4
20200712112804 61 322 5.0 12.0 0.00 0.00 0.00 84 1013.3
20200712112304 61 327 3.0 12.0 0.00 0.00 0.00 85 1013.4
20200712111806 61 333 7.0 12.0 0.00 0.00 0.00 85 1013.4
20200712111304 61 324 7.0 12.0 0.00 0.00 0.00 85 1013.4
20200712110804 61 302 4.0 8.0 0.00 0.00 0.00 86 1013.3
20200712110303 61 322 6.0 12.0 0.00 0.00 0.00 86 1013.2
20200712105804 60 332 6.0 12.0 0.00 0.00 0.00 86 1013.2
20200712105304 60 328 6.0 12.0 0.00 0.00 0.00 86 1013.1
20200712104804 60 319 4.0 12.0 0.00 0.00 0.00 86 1013.2
20200712104304 60 322 5.0 9.0 0.00 0.00 0.00 86 1013.2
20200712103803 60 336 5.0 12.0 0.00 0.00 0.00 86 1013.2
20200712103304 60 332 6.0 12.0 0.00 0.00 0.00 86 1013.1
20200712102804 60 329 5.0 9.0 0.00 0.00 0.00 86 1013.1
20200712102304 61 326 6.0 10.0 0.00 0.00 0.00 86 1013.1
20200712101804 61 321 5.0 8.0 0.00 0.00 0.00 85 1013.1
20200712101303 61 325 5.0 9.0 0.00 0.00 0.00 85 1013.0
20200712100803 61 325 5.0 8.0 0.00 0.00 0.00 85 1012.9
20200712100305 61 324 5.0 10.0 0.00 0.00 0.00 85 1012.9
20200712095803 61 324 5.0 9.0 0.00 0.00 0.00 85 1012.9
20200712095305 61 328 5.0 8.0 0.00 0.00 0.00 85 1012.9
20200712094803 61 321 5.0 8.0 0.00 0.00 0.00 85 1012.6
20200712094304 61 314 4.0 8.0 0.00 0.00 0.00 85 1012.6
20200712093804 61 325 4.0 9.0 0.00 0.00 0.00 85 1012.6
20200712093304 61 334 6.0 10.0 0.00 0.00 0.00 85 1012.6
20200712092804 61 331 5.0 10.0 0.00 0.00 0.00 85 1012.6
20200712092303 61 322 6.0 10.0 0.00 0.00 0.00 86 1012.6
20200712091809 61 331 4.0 10.0 0.00 0.00 0.00 85 1012.6
20200712091304 61 321 3.0 8.0 0.00 0.00 0.00 85 1012.6
20200712090805 61 318 3.0 7.0 0.00 0.00 0.00 85 1012.6
20200712090304 61 323 3.0 7.0 0.00 0.00 0.00 85 1012.6
20200712085803 61 314 3.0 7.0 0.00 0.00 0.00 85 1012.6
20200712085304 61 313 2.0 5.0 0.00 0.00 0.00 84 1012.5
20200712084805 61 315 2.0 6.0 0.00 0.00 0.00 84 1012.4
20200712084304 61 315 3.0 5.0 0.00 0.00 0.00 84 1012.3
20200712083804 61 323 2.0 6.0 0.00 0.00 0.00 84 1012.2
20200712083304 61 311 1.0 5.0 0.00 0.00 0.00 84 1012.2
20200712082803 61 314 1.0 3.0 0.00 0.00 0.00 84 1012.2
20200712082304 62 318 3.0 7.0 0.00 0.00 0.00 84 1012.1
20200712081804 62 315 3.0 6.0 0.00 0.00 0.00 83 1012.1
20200712081306 62 333 2.0 6.0 0.00 0.00 0.00 83 1012.1
20200712080807 62 340 3.0 7.0 0.00 0.00 0.00 83 1012.0
20200712080304 62 319 3.0 7.0 0.00 0.00 0.00 83 1012.0
20200712075804 62 337 5.0 9.0 0.00 0.00 0.00 83 1012.0
20200712075304 62 333 5.0 8.0 0.00 0.00 0.00 83 1012.0
20200712074806 62 311 2.0 8.0 0.00 0.00 0.00 83 1011.8
20200712074303 62 324 3.0 8.0 0.00 0.00 0.00 82 1011.8
20200712073804 62 311 3.0 10.0 0.00 0.00 0.00 82 1011.6
20200712073304 62 313 6.0 9.0 0.00 0.00 0.00 82 1011.6
20200712072804 62 321 3.0 7.0 0.00 0.00 0.00 82 1011.6
20200712072304 62 291 3.0 7.0 0.00 0.00 0.00 82 1011.6
20200712071804 62 317 4.0 8.0 0.00 0.00 0.00 82 1011.7
20200712071306 63 298 3.0 7.0 0.00 0.00 0.00 82 1011.7
20200712070804 63 316 4.0 8.0 0.00 0.00 0.00 82 1011.6
20200712070304 63 329 4.0 8.0 0.00 0.00 0.00 81 1011.6
20200712065808 63 315 5.0 9.0 0.00 0.00 0.00 81 1011.6
20200712065304 63 315 3.0 6.0 0.00 0.00 0.00 81 1011.6
20200712064804 63 318 3.0 6.0 0.00 0.00 0.00 81 1011.6
20200712064304 63 313 4.0 7.0 0.00 0.00 0.00 81 1011.6
20200712063805 63 321 3.0 7.0 0.00 0.00 0.00 81 1011.6
20200712063305 63 327 3.0 8.0 0.00 0.00 0.00 80 1011.6
20200712062804 64 324 3.0 7.0 0.00 0.00 0.00 80 1011.6
20200712062314 64 325 3.0 7.0 0.00 0.00 0.00 79 1011.6
20200712061805 64 311 3.0 7.0 0.00 0.00 0.00 79 1011.5
20200712061304 64 358 3.0 8.0 0.00 0.00 0.00 78 1011.6
20200712060804 64 326 3.0 7.0 0.00 0.00 0.00 78 1011.6
20200712060303 64 346 6.0 12.0 0.00 0.00 0.00 78 1011.6
20200712055804 64 323 5.0 7.0 0.00 0.00 0.00 79 1011.6
20200712055307 64 322 3.0 7.0 0.00 0.00 0.00 79 1011.7
20200712054803 64 348 6.0 9.0 0.00 0.00 0.00 79 1011.8
20200712054304 64 354 6.0 10.0 0.00 0.00 0.00 79 1011.8
20200712053804 64 333 6.0 10.0 0.00 0.00 0.00 80 1011.9
20200712053304 64 342 7.0 10.0 0.00 0.00 0.00 80 1011.9
20200712052804 64 353 6.0 12.0 0.00 0.00 0.00 80 1012.0
20200712052303 64 348 7.0 10.0 0.00 0.00 0.00 81 1012.1
20200712051804 64 352 7.0 12.0 0.00 0.00 0.00 80 1012.1
20200712051305 64 354 7.0 10.0 0.00 0.00 0.00 80 1012.1
20200712050826 64 337 5.0 12.0 0.00 0.00 0.00 80 1012.1
20200712050304 64 331 6.0 10.0 0.00 0.00 0.00 81 1012.1
20200712045804 64 7 5.0 9.0 0.00 0.00 0.00 81 1012.1
20200712045307 64 350 7.0 9.0 0.00 0.00 0.00 81 1012.1
20200712044804 64 350 6.0 8.0 0.00 0.00 0.00 81 1012.0
20200712044304 64 359 6.0 10.0 0.00 0.00 0.00 80 1012.0
20200712043804 64 1 6.0 10.0 0.00 0.00 0.00 80 1012.0
20200712043303 64 354 6.0 9.0 0.00 0.00 0.00 80 1012.1
20200712042804 65 0 6.0 9.0 0.00 0.00 0.00 80 1012.1
20200712042303 65 355 6.0 9.0 0.00 0.00 0.00 81 1012.1
20200712041805 65 357 6.0 10.0 0.00 0.00 0.00 81 1012.0
20200712041304 65 353 6.0 8.0 0.00 0.00 0.00 81 1012.0
20200712040803 65 350 6.0 8.0 0.00 0.00 0.00 81 1012.0
20200712040305 65 353 6.0 10.0 0.00 0.00 0.00 81 1011.9
20200712035805 65 7 6.0 10.0 0.00 0.00 0.00 81 1011.9
20200712035304 65 0 6.0 8.0 0.00 0.00 0.00 81 1011.9
20200712034804 65 9 7.0 9.0 0.00 0.00 0.00 80 1011.9
20200712034304 65 4 6.0 8.0 0.00 0.00 0.00 80 1012.0
20200712033803 65 10 4.0 8.0 0.00 0.00 0.00 80 1012.0
20200712033305 65 3 5.0 7.0 0.00 0.00 0.00 80 1012.0
20200712032804 65 18 6.0 10.0 0.00 0.00 0.00 80 1012.1
20200712032308 65 13 6.0 8.0 0.00 0.00 0.00 80 1012.0
20200712031803 65 19 5.0 8.0 0.00 0.00 0.00 80 1011.8
20200712031303 65 23 5.0 7.0 0.00 0.00 0.00 79 1011.9
20200712030803 66 33 3.0 7.0 0.00 0.00 0.00 79 1011.9
20200712030306 66 35 4.0 8.0 0.00 0.00 0.00 78 1012.0
20200712025803 66 34 4.0 7.0 0.00 0.00 0.00 78 1012.0
20200712025302 66 51 2.0 7.0 0.00 0.00 0.00 78 1012.1
20200712024802 66 38 3.0 8.0 0.00 0.00 0.00 77 1012.1
20200712024304 67 46 3.0 6.0 0.00 0.00 0.00 77 1012.1
20200712023803 67 45 2.0 7.0 0.00 0.00 0.00 77 1012.1
20200712023303 67 45 2.0 7.0 0.00 0.00 0.00 76 1011.9
20200712022803 67 43 5.0 12.0 0.00 0.00 0.00 76 1011.9
20200712022302 68 46 5.0 12.0 0.00 0.00 0.00 75 1011.9
20200712021803 68 59 3.0 8.0 0.00 0.00 0.00 75 1011.9
20200712021302 69 48 4.0 7.0 0.00 0.00 0.00 75 1011.7
20200712020802 69 41 5.0 9.0 0.00 0.00 0.00 74 1011.5
20200712020302 69 41 4.0 10.0 0.00 0.00 0.00 74 1011.5
20200712015802 70 64 6.0 12.0 0.00 0.00 0.00 73 1011.3
20200712015302 70 76 4.0 10.0 0.00 0.00 0.00 73 1011.3